createdAt,value
2018-05-11T00:00:01.378Z,24.10
2018-05-11T00:02:28.723Z,24.10
2018-05-11T00:04:56.076Z,24.10
2018-05-11T00:07:23.401Z,24.10
2018-05-11T00:09:50.729Z,24.10
2018-05-11T00:12:18.075Z,24.10
2018-05-11T00:14:46.234Z,24.10
2018-05-11T00:17:14.337Z,24.10
2018-05-11T00:19:41.718Z,24.10
2018-05-11T00:22:09.051Z,24.10
2018-05-11T00:24:36.404Z,24.10
2018-05-11T00:27:03.726Z,24.10
2018-05-11T00:29:31.847Z,24.10
2018-05-11T00:31:59.185Z,24.10
2018-05-11T00:34:26.548Z,24.00
2018-05-11T00:36:53.888Z,24.10
2018-05-11T00:39:21.232Z,24.10
2018-05-11T00:41:48.652Z,24.00
2018-05-11T00:44:15.975Z,24.00
2018-05-11T00:46:43.337Z,24.00
2018-05-11T00:49:10.701Z,24.00
2018-05-11T00:51:38.070Z,24.00
2018-05-11T00:54:06.129Z,24.10
2018-05-11T00:56:33.512Z,24.00
2018-05-11T00:59:00.833Z,24.00
2018-05-11T01:01:28.180Z,24.00
2018-05-11T01:03:55.506Z,24.00
2018-05-11T01:06:22.876Z,24.00
2018-05-11T01:08:50.201Z,24.00
2018-05-11T01:11:18.286Z,24.00
2018-05-11T01:13:45.602Z,24.00
2018-05-11T01:16:13.645Z,24.00
2018-05-11T01:18:40.977Z,24.00
2018-05-11T01:21:08.288Z,24.00
2018-05-11T01:23:35.613Z,24.00
2018-05-11T01:26:03.714Z,24.00
2018-05-11T01:28:31.051Z,24.00
2018-05-11T01:30:58.341Z,24.00
2018-05-11T01:35:59.208Z,24.00
2018-05-11T01:38:26.538Z,24.00
2018-05-11T01:40:53.865Z,24.00
2018-05-11T01:43:21.146Z,24.00
2018-05-11T01:45:48.437Z,24.00
2018-05-11T01:48:15.759Z,24.00
2018-05-11T01:50:43.124Z,24.00
2018-05-11T01:53:10.432Z,24.00
2018-05-11T01:55:37.753Z,24.00
2018-05-11T01:58:05.106Z,24.00
2018-05-11T02:00:33.165Z,24.00
2018-05-11T02:03:00.441Z,24.00
2018-05-11T02:05:28.509Z,23.90
2018-05-11T02:07:56.634Z,23.90
2018-05-11T02:10:23.921Z,23.90
2018-05-11T02:12:51.229Z,23.90
2018-05-11T02:15:18.566Z,23.90
2018-05-11T02:17:45.878Z,23.90
2018-05-11T02:20:13.178Z,23.90
2018-05-11T02:22:40.534Z,23.90
2018-05-11T02:25:07.817Z,23.90
2018-05-11T02:27:35.124Z,23.90
2018-05-11T02:30:02.438Z,23.90
2018-05-11T02:32:29.756Z,23.90
2018-05-11T02:34:57.073Z,23.90
2018-05-11T02:37:24.381Z,23.90
2018-05-11T02:39:51.723Z,23.90
2018-05-11T02:42:19.067Z,23.90
2018-05-11T02:44:46.382Z,23.90
2018-05-11T02:47:13.692Z,23.90
2018-05-11T02:49:40.982Z,23.90
2018-05-11T02:52:09.077Z,23.90
2018-05-11T02:54:36.409Z,23.90
2018-05-11T02:57:04.474Z,23.90
2018-05-11T02:59:32.545Z,23.90
2018-05-11T03:01:59.883Z,23.90
2018-05-11T03:04:27.961Z,23.80
2018-05-11T03:06:56.029Z,23.80
2018-05-11T03:09:24.117Z,23.80
2018-05-11T03:11:51.430Z,23.80
2018-05-11T03:14:18.714Z,23.80
2018-05-11T03:16:46.794Z,23.80
2018-05-11T03:19:14.125Z,23.80
2018-05-11T03:21:42.226Z,23.80
2018-05-11T03:24:09.512Z,23.80
2018-05-11T03:26:36.830Z,23.80
2018-05-11T03:29:04.157Z,23.80
2018-05-11T03:31:32.242Z,23.80
2018-05-11T03:33:59.563Z,23.80
2018-05-11T03:36:26.896Z,23.80
2018-05-11T03:38:54.228Z,23.80
2018-05-11T03:41:21.573Z,23.80
2018-05-11T03:43:48.872Z,23.80
2018-05-11T03:46:16.152Z,23.70
2018-05-11T03:48:44.172Z,23.70
2018-05-11T03:51:11.361Z,23.70
2018-05-11T03:53:38.596Z,23.70
2018-05-11T03:56:05.804Z,23.70
2018-05-11T03:58:33.116Z,23.70
2018-05-11T04:01:00.373Z,23.70
2018-05-11T04:03:34.298Z,23.70
2018-05-11T04:06:04.123Z,23.70
2018-05-11T04:08:37.273Z,23.70
2018-05-11T04:11:04.452Z,23.70
2018-05-11T04:13:31.710Z,23.70
2018-05-11T04:15:58.923Z,23.70
2018-05-11T04:18:26.125Z,23.70
2018-05-11T04:20:53.355Z,23.70
2018-05-11T04:23:20.607Z,23.70
2018-05-11T04:25:47.842Z,23.70
2018-05-11T04:28:15.834Z,23.60
2018-05-11T04:30:43.032Z,23.70
2018-05-11T04:33:10.234Z,23.60
2018-05-11T04:35:37.438Z,23.60
2018-05-11T04:38:04.624Z,23.70
2018-05-11T04:40:31.824Z,23.60
2018-05-11T04:42:59.012Z,23.60
2018-05-11T04:45:26.991Z,23.60
2018-05-11T04:47:54.232Z,23.60
2018-05-11T04:50:22.209Z,23.60
2018-05-11T04:52:49.542Z,23.60
2018-05-11T04:55:17.563Z,23.60
2018-05-11T04:57:44.764Z,23.60
2018-05-11T05:00:12.743Z,23.60
2018-05-11T05:02:40.740Z,23.60
2018-05-11T05:05:07.969Z,23.60
2018-05-11T05:07:35.163Z,23.60
2018-05-11T05:10:02.372Z,23.60
2018-05-11T05:12:29.597Z,23.50
2018-05-11T05:14:57.573Z,23.50
2018-05-11T05:17:25.533Z,23.50
2018-05-11T05:19:53.530Z,23.50
2018-05-11T05:22:20.736Z,23.50
2018-05-11T05:24:47.924Z,23.50
2018-05-11T05:27:15.162Z,23.50
2018-05-11T05:29:42.390Z,23.50
2018-05-11T05:32:09.591Z,23.50
2018-05-11T05:34:36.806Z,23.50
2018-05-11T05:37:04.780Z,23.50
2018-05-11T05:39:32.830Z,23.50
2018-05-11T05:42:00.028Z,23.50
2018-05-11T05:44:27.226Z,23.50
2018-05-11T05:46:54.443Z,23.50
2018-05-11T05:49:21.649Z,23.50
2018-05-11T05:51:49.646Z,23.50
2018-05-11T05:54:16.879Z,23.50
2018-05-11T05:56:44.114Z,23.50
2018-05-11T05:59:12.080Z,23.50
2018-05-11T06:01:40.027Z,23.50
2018-05-11T06:04:07.239Z,23.40
2018-05-11T06:06:34.463Z,23.40
2018-05-11T06:09:01.687Z,23.40
2018-05-11T06:11:28.902Z,23.40
2018-05-11T06:13:56.142Z,23.40
2018-05-11T06:16:23.347Z,23.40
2018-05-11T06:18:51.321Z,23.40
2018-05-11T06:21:19.338Z,23.40
2018-05-11T06:23:46.524Z,23.40
2018-05-11T06:26:13.767Z,23.40
2018-05-11T06:28:40.977Z,23.40
2018-05-11T06:31:08.173Z,23.40
2018-05-11T06:33:35.379Z,23.40
2018-05-11T06:36:02.607Z,23.40
2018-05-11T06:38:29.793Z,23.40
2018-05-11T06:40:57.028Z,23.40
2018-05-11T06:43:24.263Z,23.40
2018-05-11T06:45:51.545Z,23.40
2018-05-11T06:48:18.738Z,23.40
2018-05-11T06:50:46.722Z,23.30
2018-05-11T06:53:14.714Z,23.30
2018-05-11T06:55:41.974Z,23.30
2018-05-11T06:58:09.242Z,23.30
2018-05-11T07:00:36.467Z,23.30
2018-05-11T07:03:03.668Z,23.30
2018-05-11T07:05:30.895Z,23.30
2018-05-11T07:07:58.190Z,23.30
2018-05-11T07:10:25.400Z,23.30
2018-05-11T07:12:52.585Z,23.30
2018-05-11T07:15:20.531Z,23.30
2018-05-11T07:17:47.724Z,23.30
2018-05-11T07:20:14.932Z,23.30
2018-05-11T07:22:42.140Z,23.30
2018-05-11T07:25:09.350Z,23.30
2018-05-11T07:27:37.355Z,23.30
2018-05-11T07:30:04.583Z,23.30
2018-05-11T07:32:31.800Z,23.30
2018-05-11T07:34:59.099Z,23.30
2018-05-11T07:37:26.246Z,23.30
2018-05-11T07:39:53.448Z,23.30
2018-05-11T07:42:20.655Z,23.30
2018-05-11T07:44:47.919Z,23.30
2018-05-11T07:47:15.115Z,23.30
2018-05-11T07:49:43.090Z,23.30
2018-05-11T07:52:11.069Z,23.30
2018-05-11T07:54:39.039Z,23.20
2018-05-11T07:57:06.297Z,23.30
2018-05-11T07:59:33.559Z,23.20
2018-05-11T08:02:00.776Z,23.20
2018-05-11T08:04:28.751Z,23.20
2018-05-11T08:06:56.702Z,23.20
2018-05-11T08:09:23.899Z,23.20
2018-05-11T08:11:51.104Z,23.20
2018-05-11T08:14:19.152Z,23.20
2018-05-11T08:16:46.376Z,23.20
2018-05-11T08:19:13.698Z,23.20
2018-05-11T08:21:41.049Z,23.20
2018-05-11T08:24:08.390Z,23.20
2018-05-11T08:26:36.476Z,23.20
2018-05-11T08:29:03.818Z,23.20
2018-05-11T08:31:31.148Z,23.20
2018-05-11T08:33:59.571Z,23.20
2018-05-11T08:36:26.873Z,23.20
2018-05-11T08:38:54.984Z,23.20
2018-05-11T08:41:22.299Z,23.20
2018-05-11T08:43:50.398Z,23.20
2018-05-11T08:46:17.784Z,23.20
2018-05-11T08:48:45.126Z,23.20
2018-05-11T08:51:12.459Z,23.20
2018-05-11T08:53:39.686Z,23.20
2018-05-11T08:56:06.966Z,23.20
2018-05-11T08:58:34.199Z,23.20
2018-05-11T09:01:02.189Z,23.20
2018-05-11T09:03:29.423Z,23.20
2018-05-11T09:05:57.376Z,23.20
2018-05-11T09:08:24.628Z,23.20
2018-05-11T09:10:51.902Z,23.20
2018-05-11T09:13:19.090Z,23.20
2018-05-11T09:15:46.294Z,23.20
2018-05-11T09:18:14.286Z,23.20
2018-05-11T09:20:41.498Z,23.20
2018-05-11T09:23:08.715Z,23.20
2018-05-11T09:25:35.958Z,23.20
2018-05-11T09:28:03.245Z,23.10
2018-05-11T09:30:30.468Z,23.10
2018-05-11T09:32:57.687Z,23.10
2018-05-11T09:35:24.918Z,23.10
2018-05-11T09:37:52.926Z,23.10
2018-05-11T09:40:20.157Z,23.10
2018-05-11T09:42:47.378Z,23.10
2018-05-11T09:45:14.560Z,23.20
2018-05-11T09:47:41.768Z,23.10
2018-05-11T09:50:08.972Z,23.10
2018-05-11T09:52:36.177Z,23.10
2018-05-11T09:55:03.407Z,23.10
2018-05-11T09:57:30.688Z,23.10
2018-05-11T09:59:58.685Z,23.10
2018-05-11T10:02:25.872Z,23.10
2018-05-11T10:04:53.092Z,23.10
2018-05-11T10:07:20.326Z,23.10
2018-05-11T10:09:47.512Z,23.10
2018-05-11T10:12:14.706Z,23.10
2018-05-11T10:14:42.798Z,23.10
2018-05-11T10:17:10.007Z,23.10
2018-05-11T10:19:37.216Z,23.10
2018-05-11T10:22:04.463Z,23.10
2018-05-11T10:24:31.651Z,23.10
2018-05-11T10:26:58.881Z,23.10
2018-05-11T10:29:26.100Z,23.10
2018-05-11T10:31:53.312Z,23.10
2018-05-11T10:34:20.569Z,23.10
2018-05-11T10:36:47.792Z,23.10
2018-05-11T10:39:15.002Z,23.10
2018-05-11T10:41:42.259Z,23.10
2018-05-11T10:44:10.316Z,23.10
2018-05-11T10:46:38.279Z,23.10
2018-05-11T10:49:06.264Z,23.10
2018-05-11T10:51:33.467Z,23.10
2018-05-11T10:54:00.659Z,23.10
2018-05-11T10:56:27.864Z,23.10
2018-05-11T10:58:55.063Z,23.10
2018-05-11T11:01:22.244Z,23.10
2018-05-11T11:03:49.444Z,23.10
2018-05-11T11:06:17.420Z,23.10
2018-05-11T11:08:44.647Z,23.10
2018-05-11T11:11:11.863Z,23.10
2018-05-11T11:13:39.192Z,23.10
2018-05-11T11:16:06.455Z,23.10
2018-05-11T11:18:33.669Z,23.10
2018-05-11T11:21:01.634Z,23.10
2018-05-11T11:23:29.670Z,23.10
2018-05-11T11:25:56.856Z,23.10
2018-05-11T11:28:24.083Z,23.10
2018-05-11T11:30:51.326Z,23.10
2018-05-11T11:33:18.542Z,23.10
2018-05-11T11:35:45.725Z,23.10
2018-05-11T11:38:12.923Z,23.10
2018-05-11T11:40:40.160Z,23.10
2018-05-11T11:43:08.223Z,23.10
2018-05-11T11:45:36.172Z,23.10
2018-05-11T11:48:03.423Z,23.00
2018-05-11T11:50:30.647Z,23.00
2018-05-11T11:52:57.837Z,23.00
2018-05-11T11:55:25.854Z,23.10
2018-05-11T11:57:53.041Z,23.10
2018-05-11T12:00:20.286Z,23.00
2018-05-11T12:02:47.511Z,23.00
2018-05-11T12:05:14.726Z,23.00
2018-05-11T12:07:41.931Z,23.00
2018-05-11T12:10:09.178Z,23.00
2018-05-11T12:12:36.396Z,23.00
2018-05-11T12:15:03.617Z,23.00
2018-05-11T12:17:31.584Z,23.00
2018-05-11T12:19:59.554Z,23.00
2018-05-11T12:22:27.547Z,23.00
2018-05-11T12:24:54.770Z,23.00
2018-05-11T12:27:22.754Z,23.00
2018-05-11T12:29:49.959Z,23.00
2018-05-11T12:32:17.199Z,23.00
2018-05-11T12:34:44.426Z,23.00
2018-05-11T12:37:11.711Z,23.00
2018-05-11T12:39:38.981Z,23.00
2018-05-11T12:42:06.951Z,23.00
2018-05-11T12:44:34.939Z,23.00
2018-05-11T12:47:02.123Z,23.00
2018-05-11T12:49:29.368Z,23.00
2018-05-11T12:51:56.559Z,23.00
2018-05-11T12:54:24.555Z,23.00
2018-05-11T12:56:51.781Z,23.00
2018-05-11T12:59:19.023Z,23.00
2018-05-11T13:01:46.210Z,23.00
2018-05-11T13:04:13.419Z,23.00
2018-05-11T13:06:40.635Z,23.00
2018-05-11T13:09:07.863Z,23.10
2018-05-11T13:11:35.052Z,23.00
2018-05-11T13:14:02.255Z,23.00
2018-05-11T13:16:30.227Z,23.00
2018-05-11T13:18:57.498Z,23.00
2018-05-11T13:21:24.724Z,23.00
2018-05-11T13:23:52.677Z,23.00
2018-05-11T13:26:20.693Z,23.00
2018-05-11T13:28:47.887Z,23.00
2018-05-11T13:31:15.100Z,23.00
2018-05-11T13:33:42.310Z,23.00
2018-05-11T13:36:10.264Z,23.00
2018-05-11T13:38:38.244Z,23.00
2018-05-11T13:41:06.225Z,23.00
2018-05-11T13:43:33.484Z,23.00
2018-05-11T13:46:00.711Z,23.00
2018-05-11T13:48:28.755Z,23.00
2018-05-11T13:50:55.890Z,23.00
2018-05-11T13:53:23.200Z,23.00
2018-05-11T13:55:50.486Z,23.00
2018-05-11T13:58:17.672Z,23.00
2018-05-11T14:00:45.693Z,23.10
2018-05-11T14:03:12.946Z,23.10
2018-05-11T14:05:40.177Z,23.00
2018-05-11T14:08:07.381Z,23.00
2018-05-11T14:10:34.586Z,23.00
2018-05-11T14:13:01.830Z,23.00
2018-05-11T14:15:29.084Z,23.10
2018-05-11T14:17:56.309Z,23.10
2018-05-11T14:20:24.307Z,23.10
2018-05-11T14:22:51.580Z,23.10
2018-05-11T14:25:18.796Z,23.10
2018-05-11T14:27:46.018Z,23.10
2018-05-11T14:30:13.977Z,23.10
2018-05-11T14:32:41.388Z,23.10
2018-05-11T14:35:08.568Z,23.10
2018-05-11T14:37:35.767Z,23.10
2018-05-11T14:40:03.003Z,23.10
2018-05-11T14:42:30.986Z,23.10
2018-05-11T14:44:58.213Z,23.10
2018-05-11T14:47:26.187Z,23.10
2018-05-11T14:49:53.429Z,23.10
2018-05-11T14:52:21.400Z,23.10
2018-05-11T14:54:49.394Z,23.10
2018-05-11T14:57:16.600Z,23.10
2018-05-11T14:59:43.847Z,23.10
2018-05-11T15:02:11.079Z,23.10
2018-05-11T15:04:38.349Z,23.10
2018-05-11T15:07:05.580Z,23.10
2018-05-11T15:09:32.821Z,23.10
2018-05-11T15:12:00.004Z,23.10
2018-05-11T15:14:27.222Z,23.10
2018-05-11T15:16:54.566Z,23.10
2018-05-11T15:19:21.931Z,23.10
2018-05-11T15:21:49.145Z,23.20
2018-05-11T15:24:16.435Z,23.20
2018-05-11T15:26:43.668Z,23.20
2018-05-11T15:29:10.893Z,23.20
2018-05-11T15:31:38.887Z,23.20
2018-05-11T15:34:06.069Z,23.20
2018-05-11T15:36:33.271Z,23.20
2018-05-11T15:39:00.526Z,23.20
2018-05-11T15:41:27.750Z,23.20
2018-05-11T15:43:55.734Z,23.20
2018-05-11T15:46:23.732Z,23.20
2018-05-11T15:48:50.940Z,23.20
2018-05-11T15:51:18.919Z,23.20
2018-05-11T15:53:46.127Z,23.20
2018-05-11T15:56:13.354Z,23.20
2018-05-11T15:58:40.644Z,23.20
2018-05-11T16:01:07.872Z,23.20
2018-05-11T16:03:35.089Z,23.20
2018-05-11T16:06:02.287Z,23.20
2018-05-11T16:08:29.512Z,23.20
2018-05-11T16:10:56.748Z,23.20
2018-05-11T16:13:23.959Z,23.30
2018-05-11T16:15:51.940Z,23.30
2018-05-11T16:18:19.990Z,23.30
2018-05-11T16:20:48.001Z,23.30
2018-05-11T16:23:15.248Z,23.20
2018-05-11T16:25:42.436Z,23.30
2018-05-11T16:28:09.650Z,23.30
2018-05-11T16:30:36.871Z,23.30
2018-05-11T16:33:04.858Z,23.30
2018-05-11T16:35:32.087Z,23.30
2018-05-11T16:38:00.068Z,23.30
2018-05-11T16:40:27.333Z,23.30
2018-05-11T16:42:54.543Z,23.30
2018-05-11T16:45:21.764Z,23.30
2018-05-11T16:47:48.960Z,23.30
2018-05-11T16:50:16.974Z,23.30
2018-05-11T16:52:44.191Z,23.30
2018-05-11T16:55:12.151Z,23.30
2018-05-11T16:57:40.105Z,23.30
2018-05-11T17:00:08.106Z,23.30
2018-05-11T17:02:35.331Z,23.30
2018-05-11T17:05:03.364Z,23.30
2018-05-11T17:07:30.572Z,23.30
2018-05-11T17:09:57.792Z,23.30
2018-05-11T17:12:25.027Z,23.30
2018-05-11T17:14:52.211Z,23.30
2018-05-11T17:17:20.226Z,23.40
2018-05-11T17:19:47.409Z,23.30
2018-05-11T17:22:14.631Z,23.30
2018-05-11T17:24:41.869Z,23.40
2018-05-11T17:27:09.066Z,23.40
2018-05-11T17:29:37.072Z,23.40
2018-05-11T17:32:04.315Z,23.30
2018-05-11T17:34:31.590Z,23.40
2018-05-11T17:36:58.820Z,23.40
2018-05-11T17:39:26.042Z,23.40
2018-05-11T17:41:54.007Z,23.40
2018-05-11T17:44:22.019Z,23.40
2018-05-11T17:46:49.236Z,23.40
2018-05-11T17:49:17.290Z,23.40
2018-05-11T17:51:45.284Z,23.40
2018-05-11T17:54:12.535Z,23.40
2018-05-11T17:56:39.769Z,23.40
2018-05-11T17:59:07.788Z,23.40
2018-05-11T18:01:35.777Z,23.40
2018-05-11T18:04:03.019Z,23.40
2018-05-11T18:06:30.277Z,23.40
2018-05-11T18:08:57.553Z,23.40
2018-05-11T18:11:25.648Z,23.50
2018-05-11T18:13:53.009Z,23.50
2018-05-11T18:16:20.214Z,23.50
2018-05-11T18:18:47.483Z,23.50
2018-05-11T18:21:15.601Z,23.50
2018-05-11T18:23:42.869Z,23.50
2018-05-11T18:26:10.143Z,23.50
2018-05-11T18:28:37.343Z,23.50
2018-05-11T18:31:04.577Z,23.50
2018-05-11T18:33:31.796Z,23.50
2018-05-11T18:35:59.014Z,23.50
2018-05-11T18:38:27.121Z,23.50
2018-05-11T18:40:55.210Z,23.50
2018-05-11T18:43:22.556Z,23.50
2018-05-11T18:45:49.786Z,23.50
2018-05-11T18:48:17.077Z,23.50
2018-05-11T18:50:44.305Z,23.50
2018-05-11T18:53:12.496Z,23.50
2018-05-11T18:55:39.693Z,23.50
2018-05-11T18:58:07.000Z,23.50
2018-05-11T19:00:34.217Z,23.50
2018-05-11T19:03:01.452Z,23.60
2018-05-11T19:05:28.766Z,23.60
2018-05-11T19:07:56.121Z,23.50
2018-05-11T19:10:23.453Z,23.60
2018-05-11T19:12:50.686Z,23.60
2018-05-11T19:15:18.678Z,23.60
2018-05-11T19:17:46.741Z,23.60
2018-05-11T19:20:14.068Z,23.60
2018-05-11T19:22:42.212Z,23.60
2018-05-11T19:25:09.456Z,23.60
2018-05-11T19:27:36.789Z,23.60
2018-05-11T19:30:04.112Z,23.60
2018-05-11T19:32:32.100Z,23.60
2018-05-11T19:34:59.433Z,23.60
2018-05-11T19:37:27.538Z,23.60
2018-05-11T19:39:54.873Z,23.60
2018-05-11T19:42:22.233Z,23.60
2018-05-11T19:44:49.547Z,23.60
2018-05-11T19:47:17.545Z,23.60
2018-05-11T19:49:45.619Z,23.60
2018-05-11T19:52:12.968Z,23.60
2018-05-11T19:54:40.192Z,23.60
2018-05-11T19:57:07.408Z,23.60
2018-05-11T19:59:34.644Z,23.60
2018-05-11T20:02:01.862Z,23.60
2018-05-11T20:04:29.825Z,23.60
2018-05-11T20:06:57.834Z,23.60
2018-05-11T20:09:25.039Z,23.60
2018-05-11T20:11:53.037Z,23.70
2018-05-11T20:14:20.264Z,23.70
2018-05-11T20:16:48.267Z,23.70
2018-05-11T20:19:15.475Z,23.70
2018-05-11T20:21:43.463Z,23.70
2018-05-11T20:24:11.461Z,23.70
2018-05-11T20:26:38.644Z,23.70
2018-05-11T20:29:05.857Z,23.70
2018-05-11T20:31:33.121Z,23.70
2018-05-11T20:34:00.342Z,23.70
2018-05-11T20:36:28.158Z,23.70
2018-05-11T20:38:55.477Z,23.70
2018-05-11T20:41:22.761Z,23.70
2018-05-11T20:43:50.061Z,23.70
2018-05-11T20:46:17.377Z,23.70
2018-05-11T20:48:45.520Z,23.70
2018-05-11T20:51:12.802Z,23.70
2018-05-11T20:53:40.126Z,23.70
2018-05-11T20:56:07.475Z,23.70
2018-05-11T20:58:34.806Z,23.70
2018-05-11T21:01:02.145Z,23.70
2018-05-11T21:03:29.504Z,23.70
2018-05-11T21:05:56.847Z,23.70
2018-05-11T21:08:24.173Z,23.70
2018-05-11T21:10:51.620Z,23.70
2018-05-11T21:13:18.913Z,23.70
2018-05-11T21:15:46.235Z,23.70
2018-05-11T21:18:14.308Z,23.70
2018-05-11T21:20:42.381Z,23.70
2018-05-11T21:23:10.660Z,23.70
2018-05-11T21:25:38.731Z,23.70
2018-05-11T21:28:06.777Z,23.70
2018-05-11T21:30:34.129Z,23.70
2018-05-11T21:33:01.466Z,23.70
2018-05-11T21:35:28.777Z,23.70
2018-05-11T21:37:56.133Z,23.70
2018-05-11T21:40:23.497Z,23.70
2018-05-11T21:42:50.816Z,23.70
2018-05-11T21:45:18.891Z,23.70
2018-05-11T21:47:46.956Z,23.70
2018-05-11T21:50:15.056Z,23.70
2018-05-11T21:52:42.376Z,23.70
2018-05-11T21:55:10.451Z,23.70
2018-05-11T21:57:38.524Z,23.70
2018-05-11T22:00:06.692Z,23.70
2018-05-11T22:02:34.831Z,23.70
2018-05-11T22:05:02.142Z,23.80
2018-05-11T22:07:29.454Z,23.70
2018-05-11T22:09:56.785Z,23.70
2018-05-11T22:12:24.991Z,23.70
2018-05-11T22:14:53.104Z,23.70
2018-05-11T22:17:20.448Z,23.80
2018-05-11T22:19:47.765Z,23.70
2018-05-11T22:22:15.033Z,23.80
2018-05-11T22:24:43.164Z,23.80
2018-05-11T22:27:10.496Z,23.70
2018-05-11T22:29:37.817Z,23.80
2018-05-11T22:32:05.160Z,23.80
2018-05-11T22:34:33.248Z,23.80
2018-05-11T22:37:00.545Z,23.80
2018-05-11T22:39:27.892Z,23.80
2018-05-11T22:41:55.319Z,23.80
2018-05-11T22:44:23.319Z,23.80
2018-05-11T22:46:50.531Z,23.80
2018-05-11T22:49:18.539Z,23.80
2018-05-11T22:51:45.733Z,23.80
2018-05-11T22:54:13.739Z,23.80
2018-05-11T22:56:41.030Z,23.70
2018-05-11T22:59:08.258Z,23.80
2018-05-11T23:01:35.452Z,23.80
2018-05-11T23:04:03.436Z,23.80
2018-05-11T23:06:31.470Z,23.80
2018-05-11T23:08:58.708Z,23.80
2018-05-11T23:11:25.964Z,23.80
2018-05-11T23:13:53.172Z,23.80
2018-05-11T23:16:20.411Z,23.80
2018-05-11T23:18:48.368Z,23.80
2018-05-11T23:21:16.355Z,23.80
2018-05-11T23:23:43.632Z,23.80
2018-05-11T23:26:10.828Z,23.80
2018-05-11T23:28:38.796Z,23.80
2018-05-11T23:31:06.791Z,23.80
2018-05-11T23:33:34.020Z,23.80
2018-05-11T23:36:02.063Z,23.80
2018-05-11T23:38:29.317Z,23.80
2018-05-11T23:40:56.546Z,23.80
2018-05-11T23:43:23.751Z,23.80
2018-05-11T23:45:51.751Z,23.80
2018-05-11T23:48:18.974Z,23.70
2018-05-11T23:50:46.162Z,23.80
2018-05-11T23:53:13.373Z,23.80
2018-05-11T23:55:41.377Z,23.80
2018-05-11T23:58:08.582Z,23.70
